sensor_id;sensor_type;location;lat;lon;timestamp;P1;durP1;ratioP1;P2;durP2;ratioP2
48042;SDS011;33988;47.992;8.820;2023-10-31T00:00:28;4.20;;;2.00;;
48042;SDS011;33988;47.992;8.820;2023-10-31T00:02:55;2.95;;;1.10;;
48042;SDS011;33988;47.992;8.820;2023-10-31T00:05:22;0.57;;;0.50;;
48042;SDS011;33988;47.992;8.820;2023-10-31T00:10:23;1.55;;;1.00;;
48042;SDS011;33988;47.992;8.820;2023-10-31T00:12:50;0.73;;;0.40;;
48042;SDS011;33988;47.992;8.820;2023-10-31T00:15:17;1.98;;;0.95;;
48042;SDS011;33988;47.992;8.820;2023-10-31T00:17:44;0.68;;;0.52;;
48042;SDS011;33988;47.992;8.820;2023-10-31T00:20:11;1.23;;;0.35;;
48042;SDS011;33988;47.992;8.820;2023-10-31T00:22:41;0.20;;;0.20;;
48042;SDS011;33988;47.992;8.820;2023-10-31T00:25:11;4.97;;;2.15;;
48042;SDS011;33988;47.992;8.820;2023-10-31T00:27:37;1.08;;;0.60;;
48042;SDS011;33988;47.992;8.820;2023-10-31T00:30:07;0.38;;;0.35;;
48042;SDS011;33988;47.992;8.820;2023-10-31T00:32:34;0.40;;;0.40;;
48042;SDS011;33988;47.992;8.820;2023-10-31T00:35:01;2.17;;;0.30;;
48042;SDS011;33988;47.992;8.820;2023-10-31T00:37:28;0.65;;;0.43;;
48042;SDS011;33988;47.992;8.820;2023-10-31T00:39:55;0.80;;;0.50;;
48042;SDS011;33988;47.992;8.820;2023-10-31T00:42:22;0.70;;;0.68;;
48042;SDS011;33988;47.992;8.820;2023-10-31T00:44:49;0.93;;;0.73;;
48042;SDS011;33988;47.992;8.820;2023-10-31T00:47:19;0.60;;;0.50;;
48042;SDS011;33988;47.992;8.820;2023-10-31T00:49:48;0.70;;;0.57;;
48042;SDS011;33988;47.992;8.820;2023-10-31T00:52:19;0.52;;;0.50;;
48042;SDS011;33988;47.992;8.820;2023-10-31T00:54:48;1.05;;;0.68;;
48042;SDS011;33988;47.992;8.820;2023-10-31T00:57:15;0.85;;;0.50;;
48042;SDS011;33988;47.992;8.820;2023-10-31T00:59:42;0.80;;;0.60;;
48042;SDS011;33988;47.992;8.820;2023-10-31T01:02:09;1.50;;;0.55;;
48042;SDS011;33988;47.992;8.820;2023-10-31T01:04:39;0.70;;;0.65;;
48042;SDS011;33988;47.992;8.820;2023-10-31T01:07:06;0.50;;;0.50;;
48042;SDS011;33988;47.992;8.820;2023-10-31T01:09:33;1.17;;;0.70;;
48042;SDS011;33988;47.992;8.820;2023-10-31T01:12:04;0.60;;;0.57;;
48042;SDS011;33988;47.992;8.820;2023-10-31T01:14:36;0.82;;;0.52;;
48042;SDS011;33988;47.992;8.820;2023-10-31T01:17:03;0.70;;;0.52;;
48042;SDS011;33988;47.992;8.820;2023-10-31T01:19:30;1.90;;;0.57;;
48042;SDS011;33988;47.992;8.820;2023-10-31T01:21:57;0.50;;;0.40;;
48042;SDS011;33988;47.992;8.820;2023-10-31T01:24:26;0.60;;;0.40;;
48042;SDS011;33988;47.992;8.820;2023-10-31T01:26:53;1.10;;;0.55;;
48042;SDS011;33988;47.992;8.820;2023-10-31T01:29:20;0.40;;;0.40;;
48042;SDS011;33988;47.992;8.820;2023-10-31T01:31:49;0.40;;;0.40;;
48042;SDS011;33988;47.992;8.820;2023-10-31T01:34:26;0.43;;;0.43;;
48042;SDS011;33988;47.992;8.820;2023-10-31T01:36:53;0.50;;;0.40;;
48042;SDS011;33988;47.992;8.820;2023-10-31T01:39:20;0.55;;;0.50;;
48042;SDS011;33988;47.992;8.820;2023-10-31T01:41:47;0.40;;;0.40;;
48042;SDS011;33988;47.992;8.820;2023-10-31T01:44:14;2.50;;;0.43;;
48042;SDS011;33988;47.992;8.820;2023-10-31T01:46:41;0.60;;;0.43;;
48042;SDS011;33988;47.992;8.820;2023-10-31T01:49:09;0.60;;;0.40;;
48042;SDS011;33988;47.992;8.820;2023-10-31T01:51:40;0.40;;;0.40;;
48042;SDS011;33988;47.992;8.820;2023-10-31T01:54:08;0.82;;;0.60;;
48042;SDS011;33988;47.992;8.820;2023-10-31T01:56:36;0.40;;;0.40;;
48042;SDS011;33988;47.992;8.820;2023-10-31T01:59:07;0.85;;;0.60;;
48042;SDS011;33988;47.992;8.820;2023-10-31T02:01:37;0.30;;;0.30;;
48042;SDS011;33988;47.992;8.820;2023-10-31T02:04:08;0.57;;;0.43;;
48042;SDS011;33988;47.992;8.820;2023-10-31T02:06:37;0.40;;;0.35;;
48042;SDS011;33988;47.992;8.820;2023-10-31T02:09:04;0.85;;;0.30;;
48042;SDS011;33988;47.992;8.820;2023-10-31T02:11:32;0.30;;;0.30;;
48042;SDS011;33988;47.992;8.820;2023-10-31T02:14:01;0.95;;;0.30;;
48042;SDS011;33988;47.992;8.820;2023-10-31T02:16:29;0.32;;;0.32;;
48042;SDS011;33988;47.992;8.820;2023-10-31T02:18:55;0.70;;;0.50;;
48042;SDS011;33988;47.992;8.820;2023-10-31T02:21:23;0.55;;;0.30;;
48042;SDS011;33988;47.992;8.820;2023-10-31T02:23:56;0.30;;;0.30;;
48042;SDS011;33988;47.992;8.820;2023-10-31T02:26:31;0.60;;;0.38;;
48042;SDS011;33988;47.992;8.820;2023-10-31T02:29:00;0.52;;;0.30;;
48042;SDS011;33988;47.992;8.820;2023-10-31T02:31:28;0.60;;;0.43;;
48042;SDS011;33988;47.992;8.820;2023-10-31T02:33:56;0.30;;;0.30;;
48042;SDS011;33988;47.992;8.820;2023-10-31T02:36:23;0.50;;;0.30;;
48042;SDS011;33988;47.992;8.820;2023-10-31T02:38:50;0.60;;;0.40;;
48042;SDS011;33988;47.992;8.820;2023-10-31T02:41:21;0.77;;;0.43;;
48042;SDS011;33988;47.992;8.820;2023-10-31T02:43:50;0.80;;;0.55;;
48042;SDS011;33988;47.992;8.820;2023-10-31T02:46:17;2.45;;;0.50;;
48042;SDS011;33988;47.992;8.820;2023-10-31T02:48:46;0.40;;;0.35;;
48042;SDS011;33988;47.992;8.820;2023-10-31T02:51:13;2.88;;;0.40;;
48042;SDS011;33988;47.992;8.820;2023-10-31T02:53:42;0.52;;;0.45;;
48042;SDS011;33988;47.992;8.820;2023-10-31T02:56:09;0.30;;;0.30;;
48042;SDS011;33988;47.992;8.820;2023-10-31T02:58:38;0.50;;;0.50;;
48042;SDS011;33988;47.992;8.820;2023-10-31T03:01:07;0.40;;;0.40;;
48042;SDS011;33988;47.992;8.820;2023-10-31T03:03:34;2.70;;;0.43;;
48042;SDS011;33988;47.992;8.820;2023-10-31T03:06:01;0.60;;;0.47;;
48042;SDS011;33988;47.992;8.820;2023-10-31T03:08:30;0.40;;;0.32;;
48042;SDS011;33988;47.992;8.820;2023-10-31T03:10:57;1.23;;;0.38;;
48042;SDS011;33988;47.992;8.820;2023-10-31T03:13:27;0.50;;;0.40;;
48042;SDS011;33988;47.992;8.820;2023-10-31T03:15:54;0.40;;;0.40;;
48042;SDS011;33988;47.992;8.820;2023-10-31T03:18:21;0.35;;;0.35;;
48042;SDS011;33988;47.992;8.820;2023-10-31T03:20:50;0.45;;;0.40;;
48042;SDS011;33988;47.992;8.820;2023-10-31T03:23:17;0.52;;;0.40;;
48042;SDS011;33988;47.992;8.820;2023-10-31T03:25:46;1.05;;;0.47;;
48042;SDS011;33988;47.992;8.820;2023-10-31T03:28:18;2.05;;;0.50;;
48042;SDS011;33988;47.992;8.820;2023-10-31T03:30:47;2.10;;;0.50;;
48042;SDS011;33988;47.992;8.820;2023-10-31T03:33:14;0.85;;;0.32;;
48042;SDS011;33988;47.992;8.820;2023-10-31T03:35:44;0.80;;;0.73;;
48042;SDS011;33988;47.992;8.820;2023-10-31T03:38:15;1.02;;;0.60;;
48042;SDS011;33988;47.992;8.820;2023-10-31T03:40:44;0.93;;;0.40;;
48042;SDS011;33988;47.992;8.820;2023-10-31T03:43:11;0.65;;;0.43;;
48042;SDS011;33988;47.992;8.820;2023-10-31T03:45:38;1.25;;;0.55;;
48042;SDS011;33988;47.992;8.820;2023-10-31T03:48:06;0.40;;;0.40;;
48042;SDS011;33988;47.992;8.820;2023-10-31T03:50:35;1.27;;;0.40;;
48042;SDS011;33988;47.992;8.820;2023-10-31T03:53:02;1.15;;;0.63;;
48042;SDS011;33988;47.992;8.820;2023-10-31T03:55:29;0.60;;;0.40;;
48042;SDS011;33988;47.992;8.820;2023-10-31T03:57:58;0.63;;;0.40;;
48042;SDS011;33988;47.992;8.820;2023-10-31T04:00:27;1.42;;;0.40;;
48042;SDS011;33988;47.992;8.820;2023-10-31T04:02:55;0.20;;;0.20;;
48042;SDS011;33988;47.992;8.820;2023-10-31T04:05:22;0.32;;;0.30;;
48042;SDS011;33988;47.992;8.820;2023-10-31T04:07:49;0.38;;;0.38;;
48042;SDS011;33988;47.992;8.820;2023-10-31T04:10:19;0.70;;;0.50;;
48042;SDS011;33988;47.992;8.820;2023-10-31T04:12:46;0.30;;;0.30;;
48042;SDS011;33988;47.992;8.820;2023-10-31T04:15:13;0.32;;;0.32;;
48042;SDS011;33988;47.992;8.820;2023-10-31T04:17:40;0.47;;;0.30;;
48042;SDS011;33988;47.992;8.820;2023-10-31T04:20:12;0.40;;;0.40;;
48042;SDS011;33988;47.992;8.820;2023-10-31T04:22:41;0.50;;;0.40;;
48042;SDS011;33988;47.992;8.820;2023-10-31T04:25:08;2.10;;;0.40;;
48042;SDS011;33988;47.992;8.820;2023-10-31T04:27:35;0.50;;;0.40;;
48042;SDS011;33988;47.992;8.820;2023-10-31T04:30:05;2.92;;;0.50;;
48042;SDS011;33988;47.992;8.820;2023-10-31T04:32:38;1.13;;;0.40;;
48042;SDS011;33988;47.992;8.820;2023-10-31T04:35:05;0.30;;;0.30;;
48042;SDS011;33988;47.992;8.820;2023-10-31T04:37:35;0.20;;;0.20;;
48042;SDS011;33988;47.992;8.820;2023-10-31T04:40:04;0.20;;;0.20;;
48042;SDS011;33988;47.992;8.820;2023-10-31T04:42:32;0.85;;;0.40;;
48042;SDS011;33988;47.992;8.820;2023-10-31T04:45:01;1.08;;;0.30;;
48042;SDS011;33988;47.992;8.820;2023-10-31T04:47:31;0.30;;;0.30;;
48042;SDS011;33988;47.992;8.820;2023-10-31T04:50:01;0.35;;;0.30;;
48042;SDS011;33988;47.992;8.820;2023-10-31T04:52:29;0.50;;;0.40;;
48042;SDS011;33988;47.992;8.820;2023-10-31T04:54:58;1.13;;;0.50;;
48042;SDS011;33988;47.992;8.820;2023-10-31T04:59:54;0.43;;;0.40;;
48042;SDS011;33988;47.992;8.820;2023-10-31T05:02:25;0.68;;;0.43;;
48042;SDS011;33988;47.992;8.820;2023-10-31T05:04:52;0.30;;;0.30;;
48042;SDS011;33988;47.992;8.820;2023-10-31T05:07:22;3.00;;;0.60;;
48042;SDS011;33988;47.992;8.820;2023-10-31T05:09:49;0.50;;;0.30;;
48042;SDS011;33988;47.992;8.820;2023-10-31T05:12:16;0.65;;;0.30;;
48042;SDS011;33988;47.992;8.820;2023-10-31T05:14:42;2.00;;;0.50;;
48042;SDS011;33988;47.992;8.820;2023-10-31T05:19:43;0.82;;;0.32;;
48042;SDS011;33988;47.992;8.820;2023-10-31T05:22:10;0.73;;;0.50;;
48042;SDS011;33988;47.992;8.820;2023-10-31T05:24:37;0.52;;;0.50;;
48042;SDS011;33988;47.992;8.820;2023-10-31T05:27:04;0.88;;;0.63;;
48042;SDS011;33988;47.992;8.820;2023-10-31T05:29:38;1.20;;;0.68;;
48042;SDS011;33988;47.992;8.820;2023-10-31T05:32:05;0.90;;;0.75;;
48042;SDS011;33988;47.992;8.820;2023-10-31T05:34:32;1.30;;;0.60;;
48042;SDS011;33988;47.992;8.820;2023-10-31T05:36:59;1.42;;;0.40;;
48042;SDS011;33988;47.992;8.820;2023-10-31T05:39:28;0.85;;;0.68;;
48042;SDS011;33988;47.992;8.820;2023-10-31T05:41:57;0.98;;;0.40;;
48042;SDS011;33988;47.992;8.820;2023-10-31T05:44:27;0.68;;;0.35;;
48042;SDS011;33988;47.992;8.820;2023-10-31T05:49:26;2.10;;;0.38;;
48042;SDS011;33988;47.992;8.820;2023-10-31T05:51:53;0.43;;;0.40;;
48042;SDS011;33988;47.992;8.820;2023-10-31T05:54:20;1.15;;;0.50;;
48042;SDS011;33988;47.992;8.820;2023-10-31T05:56:47;0.50;;;0.40;;
48042;SDS011;33988;47.992;8.820;2023-10-31T05:59:16;3.20;;;0.75;;
48042;SDS011;33988;47.992;8.820;2023-10-31T06:01:44;0.33;;;0.33;;
48042;SDS011;33988;47.992;8.820;2023-10-31T06:04:11;1.45;;;0.60;;
48042;SDS011;33988;47.992;8.820;2023-10-31T06:06:38;1.30;;;0.65;;
48042;SDS011;33988;47.992;8.820;2023-10-31T06:09:05;0.80;;;0.60;;
48042;SDS011;33988;47.992;8.820;2023-10-31T06:11:32;0.80;;;0.77;;
48042;SDS011;33988;47.992;8.820;2023-10-31T06:13:59;1.75;;;0.90;;
48042;SDS011;33988;47.992;8.820;2023-10-31T06:16:26;1.20;;;0.98;;
48042;SDS011;33988;47.992;8.820;2023-10-31T06:18:56;4.82;;;1.40;;
48042;SDS011;33988;47.992;8.820;2023-10-31T06:21:23;3.40;;;1.45;;
48042;SDS011;33988;47.992;8.820;2023-10-31T06:23:50;2.15;;;1.15;;
48042;SDS011;33988;47.992;8.820;2023-10-31T06:26:17;1.45;;;1.17;;
48042;SDS011;33988;47.992;8.820;2023-10-31T06:28:44;2.33;;;0.88;;
48042;SDS011;33988;47.992;8.820;2023-10-31T06:31:28;2.20;;;0.60;;
48042;SDS011;33988;47.992;8.820;2023-10-31T06:33:57;4.72;;;1.00;;
48042;SDS011;33988;47.992;8.820;2023-10-31T06:36:28;1.42;;;1.00;;
48042;SDS011;33988;47.992;8.820;2023-10-31T06:39:00;1.77;;;0.90;;
48042;SDS011;33988;47.992;8.820;2023-10-31T06:41:28;1.40;;;0.88;;
48042;SDS011;33988;47.992;8.820;2023-10-31T06:43:57;1.42;;;0.82;;
48042;SDS011;33988;47.992;8.820;2023-10-31T06:46:26;1.05;;;0.63;;
48042;SDS011;33988;47.992;8.820;2023-10-31T06:48:53;2.05;;;0.70;;
48042;SDS011;33988;47.992;8.820;2023-10-31T06:51:20;2.63;;;0.93;;
48042;SDS011;33988;47.992;8.820;2023-10-31T06:53:47;1.65;;;0.85;;
48042;SDS011;33988;47.992;8.820;2023-10-31T06:56:13;4.35;;;1.02;;
48042;SDS011;33988;47.992;8.820;2023-10-31T06:58:40;1.75;;;0.90;;
48042;SDS011;33988;47.992;8.820;2023-10-31T07:01:12;4.78;;;0.88;;
48042;SDS011;33988;47.992;8.820;2023-10-31T07:03:46;1.02;;;0.70;;
48042;SDS011;33988;47.992;8.820;2023-10-31T07:06:13;2.92;;;0.80;;
48042;SDS011;33988;47.992;8.820;2023-10-31T07:08:40;2.10;;;0.88;;
48042;SDS011;33988;47.992;8.820;2023-10-31T07:11:09;2.03;;;0.95;;
48042;SDS011;33988;47.992;8.820;2023-10-31T07:16:08;1.60;;;0.60;;
48042;SDS011;33988;47.992;8.820;2023-10-31T07:18:35;1.80;;;0.80;;
48042;SDS011;33988;47.992;8.820;2023-10-31T07:21:02;1.13;;;0.75;;
48042;SDS011;33988;47.992;8.820;2023-10-31T07:23:32;1.70;;;0.73;;
48042;SDS011;33988;47.992;8.820;2023-10-31T07:26:03;1.35;;;0.73;;
48042;SDS011;33988;47.992;8.820;2023-10-31T07:28:31;2.55;;;0.90;;
48042;SDS011;33988;47.992;8.820;2023-10-31T07:30:58;1.77;;;1.20;;
48042;SDS011;33988;47.992;8.820;2023-10-31T07:33:26;1.17;;;1.00;;
48042;SDS011;33988;47.992;8.820;2023-10-31T07:35:53;1.23;;;1.10;;
48042;SDS011;33988;47.992;8.820;2023-10-31T07:38:19;3.00;;;1.35;;
48042;SDS011;33988;47.992;8.820;2023-10-31T07:40:46;1.90;;;1.30;;
48042;SDS011;33988;47.992;8.820;2023-10-31T07:43:16;1.80;;;1.30;;
48042;SDS011;33988;47.992;8.820;2023-10-31T07:45:45;3.20;;;1.60;;
48042;SDS011;33988;47.992;8.820;2023-10-31T07:48:12;3.90;;;1.67;;
48042;SDS011;33988;47.992;8.820;2023-10-31T07:53:13;2.40;;;1.25;;
48042;SDS011;33988;47.992;8.820;2023-10-31T07:55:40;4.00;;;2.50;;
48042;SDS011;33988;47.992;8.820;2023-10-31T07:58:09;4.00;;;2.72;;
48042;SDS011;33988;47.992;8.820;2023-10-31T08:00:36;5.38;;;3.50;;
48042;SDS011;33988;47.992;8.820;2023-10-31T08:03:10;3.88;;;2.20;;
48042;SDS011;33988;47.992;8.820;2023-10-31T08:05:38;2.03;;;1.80;;
48042;SDS011;33988;47.992;8.820;2023-10-31T08:08:08;2.92;;;1.60;;
48042;SDS011;33988;47.992;8.820;2023-10-31T08:10:38;2.92;;;1.35;;
48042;SDS011;33988;47.992;8.820;2023-10-31T08:13:07;1.40;;;1.00;;
48042;SDS011;33988;47.992;8.820;2023-10-31T08:15:36;5.00;;;1.25;;
48042;SDS011;33988;47.992;8.820;2023-10-31T08:18:06;3.05;;;1.17;;
48042;SDS011;33988;47.992;8.820;2023-10-31T08:20:35;2.60;;;1.20;;
48042;SDS011;33988;47.992;8.820;2023-10-31T08:23:02;1.58;;;0.90;;
48042;SDS011;33988;47.992;8.820;2023-10-31T08:25:29;3.50;;;1.17;;
48042;SDS011;33988;47.992;8.820;2023-10-31T08:27:56;2.40;;;1.70;;
48042;SDS011;33988;47.992;8.820;2023-10-31T08:30:23;4.35;;;1.58;;
48042;SDS011;33988;47.992;8.820;2023-10-31T08:32:52;5.53;;;1.60;;
48042;SDS011;33988;47.992;8.820;2023-10-31T08:35:24;2.72;;;1.20;;
48042;SDS011;33988;47.992;8.820;2023-10-31T08:37:51;2.83;;;1.13;;
48042;SDS011;33988;47.992;8.820;2023-10-31T08:40:18;2.97;;;1.23;;
48042;SDS011;33988;47.992;8.820;2023-10-31T08:42:46;2.28;;;1.10;;
48042;SDS011;33988;47.992;8.820;2023-10-31T08:45:13;2.75;;;1.00;;
48042;SDS011;33988;47.992;8.820;2023-10-31T08:47:42;2.80;;;0.88;;
48042;SDS011;33988;47.992;8.820;2023-10-31T08:50:11;1.33;;;0.80;;
48042;SDS011;33988;47.992;8.820;2023-10-31T08:52:39;3.42;;;1.20;;
48042;SDS011;33988;47.992;8.820;2023-10-31T08:55:06;3.22;;;0.88;;
48042;SDS011;33988;47.992;8.820;2023-10-31T08:57:38;1.30;;;0.80;;
48042;SDS011;33988;47.992;8.820;2023-10-31T09:00:08;2.72;;;0.80;;
48042;SDS011;33988;47.992;8.820;2023-10-31T09:02:38;2.28;;;1.10;;
48042;SDS011;33988;47.992;8.820;2023-10-31T09:05:12;2.28;;;1.23;;
48042;SDS011;33988;47.992;8.820;2023-10-31T09:07:39;3.50;;;1.13;;
48042;SDS011;33988;47.992;8.820;2023-10-31T09:10:07;1.38;;;0.80;;
48042;SDS011;33988;47.992;8.820;2023-10-31T09:12:36;2.15;;;0.90;;
48042;SDS011;33988;47.992;8.820;2023-10-31T09:15:03;0.93;;;0.70;;
48042;SDS011;33988;47.992;8.820;2023-10-31T09:17:34;1.48;;;0.80;;
48042;SDS011;33988;47.992;8.820;2023-10-31T09:20:01;1.83;;;0.95;;
48042;SDS011;33988;47.992;8.820;2023-10-31T09:22:30;2.25;;;1.00;;
48042;SDS011;33988;47.992;8.820;2023-10-31T09:24:57;1.90;;;0.98;;
48042;SDS011;33988;47.992;8.820;2023-10-31T09:27:24;3.63;;;1.17;;
48042;SDS011;33988;47.992;8.820;2023-10-31T09:29:54;1.70;;;0.98;;
48042;SDS011;33988;47.992;8.820;2023-10-31T09:32:21;2.72;;;0.90;;
48042;SDS011;33988;47.992;8.820;2023-10-31T09:34:50;3.55;;;1.35;;
48042;SDS011;33988;47.992;8.820;2023-10-31T09:37:17;1.58;;;0.85;;
48042;SDS011;33988;47.992;8.820;2023-10-31T09:39:50;1.20;;;0.70;;
48042;SDS011;33988;47.992;8.820;2023-10-31T09:42:17;0.85;;;0.60;;
48042;SDS011;33988;47.992;8.820;2023-10-31T09:44:46;1.13;;;0.63;;
48042;SDS011;33988;47.992;8.820;2023-10-31T09:47:13;0.88;;;0.70;;
48042;SDS011;33988;47.992;8.820;2023-10-31T09:49:41;1.00;;;0.80;;
48042;SDS011;33988;47.992;8.820;2023-10-31T09:52:10;1.58;;;0.93;;
48042;SDS011;33988;47.992;8.820;2023-10-31T09:54:40;1.13;;;0.80;;
48042;SDS011;33988;47.992;8.820;2023-10-31T09:57:11;2.72;;;0.80;;
48042;SDS011;33988;47.992;8.820;2023-10-31T09:59:40;0.75;;;0.55;;
48042;SDS011;33988;47.992;8.820;2023-10-31T10:02:09;1.23;;;0.60;;
48042;SDS011;33988;47.992;8.820;2023-10-31T10:04:39;1.13;;;0.77;;
48042;SDS011;33988;47.992;8.820;2023-10-31T10:07:17;1.20;;;0.68;;
48042;SDS011;33988;47.992;8.820;2023-10-31T10:09:46;1.00;;;0.73;;
48042;SDS011;33988;47.992;8.820;2023-10-31T10:12:17;0.88;;;0.60;;
48042;SDS011;33988;47.992;8.820;2023-10-31T10:14:45;1.25;;;0.80;;
48042;SDS011;33988;47.992;8.820;2023-10-31T10:17:22;0.55;;;0.55;;
48042;SDS011;33988;47.992;8.820;2023-10-31T10:20:07;0.82;;;0.75;;
48042;SDS011;33988;47.992;8.820;2023-10-31T10:22:37;0.60;;;0.60;;
48042;SDS011;33988;47.992;8.820;2023-10-31T10:25:13;1.35;;;0.63;;
48042;SDS011;33988;47.992;8.820;2023-10-31T10:27:43;0.65;;;0.43;;
48042;SDS011;33988;47.992;8.820;2023-10-31T10:30:14;1.10;;;0.50;;
48042;SDS011;33988;47.992;8.820;2023-10-31T10:32:46;0.52;;;0.40;;
48042;SDS011;33988;47.992;8.820;2023-10-31T10:35:17;0.50;;;0.50;;
48042;SDS011;33988;47.992;8.820;2023-10-31T10:37:45;1.55;;;0.60;;
48042;SDS011;33988;47.992;8.820;2023-10-31T10:40:18;0.73;;;0.60;;
48042;SDS011;33988;47.992;8.820;2023-10-31T10:42:50;0.55;;;0.45;;
48042;SDS011;33988;47.992;8.820;2023-10-31T10:45:24;1.33;;;0.60;;
48042;SDS011;33988;47.992;8.820;2023-10-31T10:47:51;0.60;;;0.52;;
48042;SDS011;33988;47.992;8.820;2023-10-31T10:50:26;1.00;;;0.50;;
48042;SDS011;33988;47.992;8.820;2023-10-31T10:55:37;1.58;;;0.70;;
48042;SDS011;33988;47.992;8.820;2023-10-31T10:58:13;0.52;;;0.50;;
48042;SDS011;33988;47.992;8.820;2023-10-31T11:01:01;0.70;;;0.60;;
48042;SDS011;33988;47.992;8.820;2023-10-31T11:03:30;1.00;;;0.50;;
48042;SDS011;33988;47.992;8.820;2023-10-31T11:05:58;1.02;;;0.80;;
48042;SDS011;33988;47.992;8.820;2023-10-31T11:08:29;0.57;;;0.57;;
48042;SDS011;33988;47.992;8.820;2023-10-31T11:10:57;2.75;;;0.85;;
48042;SDS011;33988;47.992;8.820;2023-10-31T11:13:25;0.70;;;0.50;;
48042;SDS011;33988;47.992;8.820;2023-10-31T11:15:53;0.40;;;0.40;;
48042;SDS011;33988;47.992;8.820;2023-10-31T11:18:23;1.85;;;0.60;;
48042;SDS011;33988;47.992;8.820;2023-10-31T11:20:52;1.08;;;0.50;;
48042;SDS011;33988;47.992;8.820;2023-10-31T11:23:19;1.45;;;0.70;;
48042;SDS011;33988;47.992;8.820;2023-10-31T11:25:46;2.13;;;0.50;;
48042;SDS011;33988;47.992;8.820;2023-10-31T11:28:21;1.52;;;0.80;;
48042;SDS011;33988;47.992;8.820;2023-10-31T11:30:48;0.85;;;0.60;;
48042;SDS011;33988;47.992;8.820;2023-10-31T11:33:20;0.55;;;0.50;;
48042;SDS011;33988;47.992;8.820;2023-10-31T11:35:53;0.50;;;0.50;;
48042;SDS011;33988;47.992;8.820;2023-10-31T11:38:31;1.70;;;0.40;;
48042;SDS011;33988;47.992;8.820;2023-10-31T11:41:02;0.85;;;0.45;;
48042;SDS011;33988;47.992;8.820;2023-10-31T11:46:19;0.70;;;0.50;;
48042;SDS011;33988;47.992;8.820;2023-10-31T11:48:52;2.88;;;0.60;;
48042;SDS011;33988;47.992;8.820;2023-10-31T11:51:23;3.25;;;0.90;;
48042;SDS011;33988;47.992;8.820;2023-10-31T11:53:50;3.08;;;1.63;;
48042;SDS011;33988;47.992;8.820;2023-10-31T11:56:20;2.15;;;0.93;;
48042;SDS011;33988;47.992;8.820;2023-10-31T11:58:55;6.60;;;1.10;;
48042;SDS011;33988;47.992;8.820;2023-10-31T12:01:23;1.65;;;0.70;;
48042;SDS011;33988;47.992;8.820;2023-10-31T12:03:50;0.93;;;0.60;;
48042;SDS011;33988;47.992;8.820;2023-10-31T12:06:19;0.77;;;0.57;;
48042;SDS011;33988;47.992;8.820;2023-10-31T12:08:48;7.57;;;1.13;;
48042;SDS011;33988;47.992;8.820;2023-10-31T12:11:19;0.47;;;0.47;;
48042;SDS011;33988;47.992;8.820;2023-10-31T12:13:54;3.08;;;0.65;;
48042;SDS011;33988;47.992;8.820;2023-10-31T12:16:34;1.10;;;0.47;;
48042;SDS011;33988;47.992;8.820;2023-10-31T12:19:02;0.35;;;0.35;;
48042;SDS011;33988;47.992;8.820;2023-10-31T12:24:14;2.42;;;0.80;;
48042;SDS011;33988;47.992;8.820;2023-10-31T12:26:47;2.25;;;1.00;;
48042;SDS011;33988;47.992;8.820;2023-10-31T12:29:16;4.05;;;1.50;;
48042;SDS011;33988;47.992;8.820;2023-10-31T12:31:48;3.13;;;1.02;;
48042;SDS011;33988;47.992;8.820;2023-10-31T12:34:19;1.52;;;0.70;;
48042;SDS011;33988;47.992;8.820;2023-10-31T12:36:52;1.80;;;1.17;;
48042;SDS011;33988;47.992;8.820;2023-10-31T12:39:24;2.05;;;0.70;;
48042;SDS011;33988;47.992;8.820;2023-10-31T12:41:54;0.55;;;0.52;;
48042;SDS011;33988;47.992;8.820;2023-10-31T12:44:24;1.08;;;0.50;;
48042;SDS011;33988;47.992;8.820;2023-10-31T12:46:54;0.70;;;0.60;;
48042;SDS011;33988;47.992;8.820;2023-10-31T12:49:25;0.52;;;0.50;;
48042;SDS011;33988;47.992;8.820;2023-10-31T12:51:55;0.50;;;0.50;;
48042;SDS011;33988;47.992;8.820;2023-10-31T12:54:34;1.05;;;0.50;;
48042;SDS011;33988;47.992;8.820;2023-10-31T12:59:32;0.80;;;0.50;;
48042;SDS011;33988;47.992;8.820;2023-10-31T13:02:06;0.90;;;0.47;;
48042;SDS011;33988;47.992;8.820;2023-10-31T13:04:35;0.50;;;0.50;;
48042;SDS011;33988;47.992;8.820;2023-10-31T13:07:05;0.47;;;0.38;;
48042;SDS011;33988;47.992;8.820;2023-10-31T13:09:35;3.40;;;0.70;;
48042;SDS011;33988;47.992;8.820;2023-10-31T13:12:05;1.03;;;0.63;;
48042;SDS011;33988;47.992;8.820;2023-10-31T13:14:34;1.00;;;0.68;;
48042;SDS011;33988;47.992;8.820;2023-10-31T13:17:03;0.95;;;0.50;;
48042;SDS011;33988;47.992;8.820;2023-10-31T13:19:32;1.08;;;0.60;;
48042;SDS011;33988;47.992;8.820;2023-10-31T13:21:59;1.67;;;0.90;;
48042;SDS011;33988;47.992;8.820;2023-10-31T13:24:29;2.63;;;0.73;;
48042;SDS011;33988;47.992;8.820;2023-10-31T13:26:57;2.60;;;0.73;;
48042;SDS011;33988;47.992;8.820;2023-10-31T13:29:24;1.98;;;0.80;;
48042;SDS011;33988;47.992;8.820;2023-10-31T13:31:54;1.85;;;1.00;;
48042;SDS011;33988;47.992;8.820;2023-10-31T13:34:21;1.80;;;0.90;;
48042;SDS011;33988;47.992;8.820;2023-10-31T13:36:49;1.48;;;0.77;;
48042;SDS011;33988;47.992;8.820;2023-10-31T13:39:23;0.60;;;0.43;;
48042;SDS011;33988;47.992;8.820;2023-10-31T13:41:50;1.88;;;0.55;;
48042;SDS011;33988;47.992;8.820;2023-10-31T13:44:17;0.68;;;0.57;;
48042;SDS011;33988;47.992;8.820;2023-10-31T13:46:44;0.70;;;0.50;;
48042;SDS011;33988;47.992;8.820;2023-10-31T13:49:13;0.40;;;0.40;;
48042;SDS011;33988;47.992;8.820;2023-10-31T13:51:40;1.98;;;0.50;;
48042;SDS011;33988;47.992;8.820;2023-10-31T13:54:10;2.55;;;1.23;;
48042;SDS011;33988;47.992;8.820;2023-10-31T13:56:37;4.43;;;1.67;;
48042;SDS011;33988;47.992;8.820;2023-10-31T13:59:04;9.88;;;2.00;;
48042;SDS011;33988;47.992;8.820;2023-10-31T14:01:33;3.58;;;1.50;;
48042;SDS011;33988;47.992;8.820;2023-10-31T14:04:03;3.60;;;1.52;;
48042;SDS011;33988;47.992;8.820;2023-10-31T14:06:30;3.35;;;1.52;;
48042;SDS011;33988;47.992;8.820;2023-10-31T14:08:59;2.88;;;1.27;;
48042;SDS011;33988;47.992;8.820;2023-10-31T14:11:31;3.13;;;1.40;;
48042;SDS011;33988;47.992;8.820;2023-10-31T14:14:00;3.88;;;1.52;;
48042;SDS011;33988;47.992;8.820;2023-10-31T14:16:29;2.58;;;1.42;;
48042;SDS011;33988;47.992;8.820;2023-10-31T14:18:56;1.65;;;1.00;;
48042;SDS011;33988;47.992;8.820;2023-10-31T14:21:31;1.90;;;1.00;;
48042;SDS011;33988;47.992;8.820;2023-10-31T14:23:58;3.58;;;1.20;;
48042;SDS011;33988;47.992;8.820;2023-10-31T14:26:38;2.47;;;1.10;;
48042;SDS011;33988;47.992;8.820;2023-10-31T14:29:10;2.13;;;1.17;;
48042;SDS011;33988;47.992;8.820;2023-10-31T14:31:38;3.15;;;1.30;;
48042;SDS011;33988;47.992;8.820;2023-10-31T14:34:07;3.13;;;1.17;;
48042;SDS011;33988;47.992;8.820;2023-10-31T14:36:34;2.00;;;1.00;;
48042;SDS011;33988;47.992;8.820;2023-10-31T14:39:04;2.17;;;1.10;;
48042;SDS011;33988;47.992;8.820;2023-10-31T14:41:31;1.60;;;0.85;;
48042;SDS011;33988;47.992;8.820;2023-10-31T14:44:00;0.73;;;0.73;;
48042;SDS011;33988;47.992;8.820;2023-10-31T14:46:30;1.50;;;0.80;;
48042;SDS011;33988;47.992;8.820;2023-10-31T14:49:00;1.50;;;0.60;;
48042;SDS011;33988;47.992;8.820;2023-10-31T14:51:27;2.13;;;0.90;;
48042;SDS011;33988;47.992;8.820;2023-10-31T14:53:56;1.10;;;0.70;;
48042;SDS011;33988;47.992;8.820;2023-10-31T14:56:24;1.00;;;0.70;;
48042;SDS011;33988;47.992;8.820;2023-10-31T14:58:56;0.95;;;0.70;;
48042;SDS011;33988;47.992;8.820;2023-10-31T15:01:23;0.60;;;0.50;;
48042;SDS011;33988;47.992;8.820;2023-10-31T15:03:53;1.25;;;0.60;;
48042;SDS011;33988;47.992;8.820;2023-10-31T15:06:22;0.93;;;0.60;;
48042;SDS011;33988;47.992;8.820;2023-10-31T15:08:51;1.65;;;0.50;;
48042;SDS011;33988;47.992;8.820;2023-10-31T15:11:18;0.70;;;0.57;;
48042;SDS011;33988;47.992;8.820;2023-10-31T15:13:45;1.35;;;0.52;;
48042;SDS011;33988;47.992;8.820;2023-10-31T15:16:12;0.82;;;0.60;;
48042;SDS011;33988;47.992;8.820;2023-10-31T15:18:42;1.10;;;0.60;;
48042;SDS011;33988;47.992;8.820;2023-10-31T15:21:11;1.42;;;0.70;;
48042;SDS011;33988;47.992;8.820;2023-10-31T15:23:40;1.42;;;0.80;;